sensor_id;sensor_type;location;lat;lon;timestamp;temperature;humidity
69823;SHT31;57119;52.516;13.508;2023-06-14T00:00:09;12.83;87.39
69823;SHT31;57119;52.516;13.508;2023-06-14T00:02:35;12.89;87.71
69823;SHT31;57119;52.516;13.508;2023-06-14T00:05:00;12.82;88.17
69823;SHT31;57119;52.516;13.508;2023-06-14T00:07:36;12.80;88.39
69823;SHT31;57119;52.516;13.508;2023-06-14T00:10:04;12.77;88.88
69823;SHT31;57119;52.516;13.508;2023-06-14T00:12:29;12.73;88.92
69823;SHT31;57119;52.516;13.508;2023-06-14T00:14:55;12.75;88.76
69823;SHT31;57119;52.516;13.508;2023-06-14T00:17:20;12.69;89.14
69823;SHT31;57119;52.516;13.508;2023-06-14T00:19:45;12.70;89.34
69823;SHT31;57119;52.516;13.508;2023-06-14T00:22:11;12.72;89.44
69823;SHT31;57119;52.516;13.508;2023-06-14T00:24:37;12.69;89.77
69823;SHT31;57119;52.516;13.508;2023-06-14T00:27:02;12.56;89.83
69823;SHT31;57119;52.516;13.508;2023-06-14T00:29:28;12.65;89.72
69823;SHT31;57119;52.516;13.508;2023-06-14T00:31:53;12.63;90.00
69823;SHT31;57119;52.516;13.508;2023-06-14T00:34:18;12.53;90.07
69823;SHT31;57119;52.516;13.508;2023-06-14T00:36:44;12.56;90.24
69823;SHT31;57119;52.516;13.508;2023-06-14T00:39:09;12.59;90.22
69823;SHT31;57119;52.516;13.508;2023-06-14T00:41:35;12.52;90.72
69823;SHT31;57119;52.516;13.508;2023-06-14T00:44:00;12.49;90.67
69823;SHT31;57119;52.516;13.508;2023-06-14T00:46:25;12.56;90.96
69823;SHT31;57119;52.516;13.508;2023-06-14T00:48:51;12.52;91.21
69823;SHT31;57119;52.516;13.508;2023-06-14T00:51:16;12.39;91.27
69823;SHT31;57119;52.516;13.508;2023-06-14T00:53:42;12.41;91.51
69823;SHT31;57119;52.516;13.508;2023-06-14T00:56:13;12.38;91.76
69823;SHT31;57119;52.516;13.508;2023-06-14T00:58:40;12.35;91.80
69823;SHT31;57119;52.516;13.508;2023-06-14T01:01:05;12.38;91.83
69823;SHT31;57119;52.516;13.508;2023-06-14T01:03:31;12.31;91.83
69823;SHT31;57119;52.516;13.508;2023-06-14T01:06:31;12.22;92.30
69823;SHT31;57119;52.516;13.508;2023-06-14T01:11:56;12.14;92.64
69823;SHT31;57119;52.516;13.508;2023-06-14T01:14:25;12.01;93.12
69823;SHT31;57119;52.516;13.508;2023-06-14T01:16:52;11.91;93.61
69823;SHT31;57119;52.516;13.508;2023-06-14T01:19:18;12.00;93.80
69823;SHT31;57119;52.516;13.508;2023-06-14T01:21:47;11.86;93.93
69823;SHT31;57119;52.516;13.508;2023-06-14T01:24:16;11.84;94.33
69823;SHT31;57119;52.516;13.508;2023-06-14T01:26:45;11.76;94.63
69823;SHT31;57119;52.516;13.508;2023-06-14T01:29:12;11.73;94.64
69823;SHT31;57119;52.516;13.508;2023-06-14T01:31:41;11.67;94.64
69823;SHT31;57119;52.516;13.508;2023-06-14T01:34:07;11.79;95.06
69823;SHT31;57119;52.516;13.508;2023-06-14T01:36:35;11.67;95.15
69823;SHT31;57119;52.516;13.508;2023-06-14T01:39:01;11.69;95.22
69823;SHT31;57119;52.516;13.508;2023-06-14T01:41:28;11.69;95.43
69823;SHT31;57119;52.516;13.508;2023-06-14T01:43:55;11.76;95.18
69823;SHT31;57119;52.516;13.508;2023-06-14T01:46:22;11.76;95.42
69823;SHT31;57119;52.516;13.508;2023-06-14T01:48:48;11.81;95.48
69823;SHT31;57119;52.516;13.508;2023-06-14T01:51:14;11.81;95.64
69823;SHT31;57119;52.516;13.508;2023-06-14T01:53:39;11.87;95.64
69823;SHT31;57119;52.516;13.508;2023-06-14T01:56:05;11.84;95.90
69823;SHT31;57119;52.516;13.508;2023-06-14T01:58:31;11.90;95.97
69823;SHT31;57119;52.516;13.508;2023-06-14T02:00:57;11.91;95.94
69823;SHT31;57119;52.516;13.508;2023-06-14T02:03:23;11.93;95.95
69823;SHT31;57119;52.516;13.508;2023-06-14T02:05:49;11.93;96.20
69823;SHT31;57119;52.516;13.508;2023-06-14T02:08:15;11.97;95.98
69823;SHT31;57119;52.516;13.508;2023-06-14T02:10:40;11.91;96.04
69823;SHT31;57119;52.516;13.508;2023-06-14T02:13:06;11.89;96.07
69823;SHT31;57119;52.516;13.508;2023-06-14T02:15:31;11.89;96.09
69823;SHT31;57119;52.516;13.508;2023-06-14T02:18:01;11.84;96.31
69823;SHT31;57119;52.516;13.508;2023-06-14T02:20:27;11.81;96.40
69823;SHT31;57119;52.516;13.508;2023-06-14T02:22:54;11.81;96.54
69823;SHT31;57119;52.516;13.508;2023-06-14T02:25:19;11.81;96.58
69823;SHT31;57119;52.516;13.508;2023-06-14T02:27:45;11.83;96.43
69823;SHT31;57119;52.516;13.508;2023-06-14T02:30:11;11.89;96.45
69823;SHT31;57119;52.516;13.508;2023-06-14T02:32:36;11.86;96.69
69823;SHT31;57119;52.516;13.508;2023-06-14T02:35:02;11.90;96.53
69823;SHT31;57119;52.516;13.508;2023-06-14T02:37:27;11.90;96.34
69823;SHT31;57119;52.516;13.508;2023-06-14T02:39:53;11.86;96.48
69823;SHT31;57119;52.516;13.508;2023-06-14T02:42:18;11.86;96.69
69823;SHT31;57119;52.516;13.508;2023-06-14T02:44:43;11.81;96.76
69823;SHT31;57119;52.516;13.508;2023-06-14T02:47:10;11.83;96.76
69823;SHT31;57119;52.516;13.508;2023-06-14T02:49:35;11.81;96.78
69823;SHT31;57119;52.516;13.508;2023-06-14T02:52:01;11.86;96.89
69823;SHT31;57119;52.516;13.508;2023-06-14T02:54:27;11.83;96.84
69823;SHT31;57119;52.516;13.508;2023-06-14T02:56:53;11.80;97.00
69823;SHT31;57119;52.516;13.508;2023-06-14T02:59:18;11.84;96.95
69823;SHT31;57119;52.516;13.508;2023-06-14T03:01:44;11.76;97.18
69823;SHT31;57119;52.516;13.508;2023-06-14T03:04:10;11.77;97.23
69823;SHT31;57119;52.516;13.508;2023-06-14T03:06:36;11.81;97.30
69823;SHT31;57119;52.516;13.508;2023-06-14T03:09:02;11.77;97.13
69823;SHT31;57119;52.516;13.508;2023-06-14T03:11:30;11.76;97.11
69823;SHT31;57119;52.516;13.508;2023-06-14T03:13:56;11.76;97.30
69823;SHT31;57119;52.516;13.508;2023-06-14T03:16:22;11.69;97.17
69823;SHT31;57119;52.516;13.508;2023-06-14T03:18:50;11.73;97.36
69823;SHT31;57119;52.516;13.508;2023-06-14T03:21:16;11.74;97.36
69823;SHT31;57119;52.516;13.508;2023-06-14T03:23:43;11.74;97.47
69823;SHT31;57119;52.516;13.508;2023-06-14T03:26:09;11.73;97.45
69823;SHT31;57119;52.516;13.508;2023-06-14T03:28:38;11.76;97.74
69823;SHT31;57119;52.516;13.508;2023-06-14T03:31:03;11.86;97.35
69823;SHT31;57119;52.516;13.508;2023-06-14T03:33:28;11.79;97.31
69823;SHT31;57119;52.516;13.508;2023-06-14T03:35:54;11.90;97.23
69823;SHT31;57119;52.516;13.508;2023-06-14T03:38:21;11.87;97.15
69823;SHT31;57119;52.516;13.508;2023-06-14T03:40:46;11.98;97.33
69823;SHT31;57119;52.516;13.508;2023-06-14T03:43:12;11.94;97.07
69823;SHT31;57119;52.516;13.508;2023-06-14T03:45:37;11.93;97.00
69823;SHT31;57119;52.516;13.508;2023-06-14T03:48:03;11.91;97.14
69823;SHT31;57119;52.516;13.508;2023-06-14T03:50:28;12.00;97.18
69823;SHT31;57119;52.516;13.508;2023-06-14T03:52:53;12.13;96.80
69823;SHT31;57119;52.516;13.508;2023-06-14T03:55:19;12.27;96.56
69823;SHT31;57119;52.516;13.508;2023-06-14T03:57:45;12.31;96.30
69823;SHT31;57119;52.516;13.508;2023-06-14T04:00:11;12.46;96.22
69823;SHT31;57119;52.516;13.508;2023-06-14T04:02:37;12.75;95.61
69823;SHT31;57119;52.516;13.508;2023-06-14T04:05:03;12.85;94.94
69823;SHT31;57119;52.516;13.508;2023-06-14T04:07:28;13.03;94.47
69823;SHT31;57119;52.516;13.508;2023-06-14T04:09:55;13.06;94.37
69823;SHT31;57119;52.516;13.508;2023-06-14T04:12:20;13.08;93.68
69823;SHT31;57119;52.516;13.508;2023-06-14T04:14:46;13.15;93.53
69823;SHT31;57119;52.516;13.508;2023-06-14T04:17:11;13.25;93.42
69823;SHT31;57119;52.516;13.508;2023-06-14T04:19:36;13.30;93.21
69823;SHT31;57119;52.516;13.508;2023-06-14T04:22:02;13.41;93.07
69823;SHT31;57119;52.516;13.508;2023-06-14T04:24:28;13.38;92.82
69823;SHT31;57119;52.516;13.508;2023-06-14T04:26:58;13.45;92.79
69823;SHT31;57119;52.516;13.508;2023-06-14T04:29:24;13.54;92.43
69823;SHT31;57119;52.516;13.508;2023-06-14T04:31:53;13.61;91.90
69823;SHT31;57119;52.516;13.508;2023-06-14T04:34:19;13.68;91.63
69823;SHT31;57119;52.516;13.508;2023-06-14T04:36:47;13.76;91.64
69823;SHT31;57119;52.516;13.508;2023-06-14T04:39:19;13.83;91.87
69823;SHT31;57119;52.516;13.508;2023-06-14T04:41:45;13.95;91.46
69823;SHT31;57119;52.516;13.508;2023-06-14T04:44:10;13.95;91.15
69823;SHT31;57119;52.516;13.508;2023-06-14T04:46:36;14.05;90.95
69823;SHT31;57119;52.516;13.508;2023-06-14T04:49:15;14.21;90.86
69823;SHT31;57119;52.516;13.508;2023-06-14T04:51:41;14.29;90.30
69823;SHT31;57119;52.516;13.508;2023-06-14T04:54:08;14.36;90.07
69823;SHT31;57119;52.516;13.508;2023-06-14T04:56:35;14.50;89.82
69823;SHT31;57119;52.516;13.508;2023-06-14T04:59:02;14.63;88.86
69823;SHT31;57119;52.516;13.508;2023-06-14T05:01:29;14.60;89.16
69823;SHT31;57119;52.516;13.508;2023-06-14T05:03:55;14.57;88.87
69823;SHT31;57119;52.516;13.508;2023-06-14T05:06:20;14.54;89.14
69823;SHT31;57119;52.516;13.508;2023-06-14T05:08:46;14.56;89.42
69823;SHT31;57119;52.516;13.508;2023-06-14T05:11:11;14.63;88.80
69823;SHT31;57119;52.516;13.508;2023-06-14T05:13:37;14.79;88.87
69823;SHT31;57119;52.516;13.508;2023-06-14T05:16:02;14.89;87.90
69823;SHT31;57119;52.516;13.508;2023-06-14T05:18:28;15.12;87.65
69823;SHT31;57119;52.516;13.508;2023-06-14T05:20:53;15.36;87.30
69823;SHT31;57119;52.516;13.508;2023-06-14T05:23:19;15.53;86.32
69823;SHT31;57119;52.516;13.508;2023-06-14T05:25:45;15.54;85.80
69823;SHT31;57119;52.516;13.508;2023-06-14T05:28:10;15.58;85.60
69823;SHT31;57119;52.516;13.508;2023-06-14T05:30:37;15.81;85.39
69823;SHT31;57119;52.516;13.508;2023-06-14T05:33:03;15.80;85.34
69823;SHT31;57119;52.516;13.508;2023-06-14T05:35:29;15.74;85.06
69823;SHT31;57119;52.516;13.508;2023-06-14T05:37:54;15.95;85.11
69823;SHT31;57119;52.516;13.508;2023-06-14T05:40:20;16.09;85.08
69823;SHT31;57119;52.516;13.508;2023-06-14T05:42:45;16.23;84.45
69823;SHT31;57119;52.516;13.508;2023-06-14T05:45:11;16.26;84.73
69823;SHT31;57119;52.516;13.508;2023-06-14T05:47:36;16.21;84.38
69823;SHT31;57119;52.516;13.508;2023-06-14T05:50:01;16.06;84.33
69823;SHT31;57119;52.516;13.508;2023-06-14T05:52:27;15.94;84.26
69823;SHT31;57119;52.516;13.508;2023-06-14T05:54:53;16.05;84.72
69823;SHT31;57119;52.516;13.508;2023-06-14T05:57:18;16.02;84.53
69823;SHT31;57119;52.516;13.508;2023-06-14T05:59:44;16.06;84.66
69823;SHT31;57119;52.516;13.508;2023-06-14T06:02:10;16.09;84.83
69823;SHT31;57119;52.516;13.508;2023-06-14T06:04:35;16.12;84.45
69823;SHT31;57119;52.516;13.508;2023-06-14T06:07:01;16.02;84.54
69823;SHT31;57119;52.516;13.508;2023-06-14T06:09:26;16.00;84.70
69823;SHT31;57119;52.516;13.508;2023-06-14T06:11:51;16.01;84.88
69823;SHT31;57119;52.516;13.508;2023-06-14T06:14:17;15.97;84.54
69823;SHT31;57119;52.516;13.508;2023-06-14T06:16:42;15.97;85.23
69823;SHT31;57119;52.516;13.508;2023-06-14T06:19:08;16.02;84.81
69823;SHT31;57119;52.516;13.508;2023-06-14T06:21:33;16.12;84.44
69823;SHT31;57119;52.516;13.508;2023-06-14T06:23:58;16.21;84.41
69823;SHT31;57119;52.516;13.508;2023-06-14T06:26:24;16.11;84.64
69823;SHT31;57119;52.516;13.508;2023-06-14T06:28:51;16.12;84.83
69823;SHT31;57119;52.516;13.508;2023-06-14T06:31:16;16.22;85.30
69823;SHT31;57119;52.516;13.508;2023-06-14T06:33:42;16.12;84.36
69823;SHT31;57119;52.516;13.508;2023-06-14T06:36:07;16.28;84.75
69823;SHT31;57119;52.516;13.508;2023-06-14T06:38:32;16.29;84.80
69823;SHT31;57119;52.516;13.508;2023-06-14T06:40:58;16.29;84.53
69823;SHT31;57119;52.516;13.508;2023-06-14T06:43:23;16.49;84.04
69823;SHT31;57119;52.516;13.508;2023-06-14T06:45:49;16.61;84.02
69823;SHT31;57119;52.516;13.508;2023-06-14T06:48:14;16.71;83.31
69823;SHT31;57119;52.516;13.508;2023-06-14T06:50:41;16.94;83.28
69823;SHT31;57119;52.516;13.508;2023-06-14T06:53:06;17.19;82.46
69823;SHT31;57119;52.516;13.508;2023-06-14T06:55:32;17.21;82.24
69823;SHT31;57119;52.516;13.508;2023-06-14T06:57:58;17.49;81.58
69823;SHT31;57119;52.516;13.508;2023-06-14T07:00:25;17.45;81.05
69823;SHT31;57119;52.516;13.508;2023-06-14T07:02:50;17.58;81.61
69823;SHT31;57119;52.516;13.508;2023-06-14T07:05:16;17.96;80.92
69823;SHT31;57119;52.516;13.508;2023-06-14T07:07:41;18.25;79.99
69823;SHT31;57119;52.516;13.508;2023-06-14T07:10:07;18.15;80.02
69823;SHT31;57119;52.516;13.508;2023-06-14T07:12:32;18.35;79.50
69823;SHT31;57119;52.516;13.508;2023-06-14T07:14:59;18.51;79.24
69823;SHT31;57119;52.516;13.508;2023-06-14T07:17:25;18.54;78.80
69823;SHT31;57119;52.516;13.508;2023-06-14T07:19:50;18.55;78.40
69823;SHT31;57119;52.516;13.508;2023-06-14T07:22:16;18.95;78.07
69823;SHT31;57119;52.516;13.508;2023-06-14T07:24:41;19.21;77.17
69823;SHT31;57119;52.516;13.508;2023-06-14T07:27:07;19.50;76.72
69823;SHT31;57119;52.516;13.508;2023-06-14T07:29:33;19.46;75.79
69823;SHT31;57119;52.516;13.508;2023-06-14T07:31:58;19.47;76.47
69823;SHT31;57119;52.516;13.508;2023-06-14T07:34:23;19.78;75.81
69823;SHT31;57119;52.516;13.508;2023-06-14T07:36:49;20.00;74.74
69823;SHT31;57119;52.516;13.508;2023-06-14T07:39:14;20.13;74.42
69823;SHT31;57119;52.516;13.508;2023-06-14T07:41:40;20.23;73.86
69823;SHT31;57119;52.516;13.508;2023-06-14T07:44:05;20.12;73.67
69823;SHT31;57119;52.516;13.508;2023-06-14T07:46:31;20.58;74.20
69823;SHT31;57119;52.516;13.508;2023-06-14T07:48:56;20.98;73.23
69823;SHT31;57119;52.516;13.508;2023-06-14T07:51:21;21.29;71.96
69823;SHT31;57119;52.516;13.508;2023-06-14T07:53:48;21.22;71.80
69823;SHT31;57119;52.516;13.508;2023-06-14T07:56:13;20.87;71.40
69823;SHT31;57119;52.516;13.508;2023-06-14T07:58:39;20.98;72.08
69823;SHT31;57119;52.516;13.508;2023-06-14T08:01:04;20.83;71.78
69823;SHT31;57119;52.516;13.508;2023-06-14T08:03:32;21.09;71.85
69823;SHT31;57119;52.516;13.508;2023-06-14T08:05:57;20.94;72.26
69823;SHT31;57119;52.516;13.508;2023-06-14T08:08:23;21.06;71.67
69823;SHT31;57119;52.516;13.508;2023-06-14T08:10:48;21.02;71.76
69823;SHT31;57119;52.516;13.508;2023-06-14T08:13:14;20.85;71.76
69823;SHT31;57119;52.516;13.508;2023-06-14T08:15:39;20.90;71.15
69823;SHT31;57119;52.516;13.508;2023-06-14T08:18:04;20.65;71.16
69823;SHT31;57119;52.516;13.508;2023-06-14T08:20:30;21.16;71.73
69823;SHT31;57119;52.516;13.508;2023-06-14T08:22:56;21.62;71.01
69823;SHT31;57119;52.516;13.508;2023-06-14T08:25:22;22.17;69.63
69823;SHT31;57119;52.516;13.508;2023-06-14T08:27:48;22.42;68.35
69823;SHT31;57119;52.516;13.508;2023-06-14T08:30:14;22.35;68.49
69823;SHT31;57119;52.516;13.508;2023-06-14T08:32:39;21.66;69.30
69823;SHT31;57119;52.516;13.508;2023-06-14T08:35:05;21.89;69.44
69823;SHT31;57119;52.516;13.508;2023-06-14T08:37:31;21.83;69.64
69823;SHT31;57119;52.516;13.508;2023-06-14T08:39:56;21.74;69.66
69823;SHT31;57119;52.516;13.508;2023-06-14T08:42:23;21.70;69.29
69823;SHT31;57119;52.516;13.508;2023-06-14T08:44:49;21.89;69.52
69823;SHT31;57119;52.516;13.508;2023-06-14T08:47:15;21.71;68.47
69823;SHT31;57119;52.516;13.508;2023-06-14T08:49:46;21.19;69.70
69823;SHT31;57119;52.516;13.508;2023-06-14T08:52:13;21.62;69.23
69823;SHT31;57119;52.516;13.508;2023-06-14T08:54:41;21.73;68.48
69823;SHT31;57119;52.516;13.508;2023-06-14T08:57:11;22.07;67.92
69823;SHT31;57119;52.516;13.508;2023-06-14T08:59:39;21.14;68.28
69823;SHT31;57119;52.516;13.508;2023-06-14T09:02:09;21.93;67.54
69823;SHT31;57119;52.516;13.508;2023-06-14T09:04:38;22.39;68.27
69823;SHT31;57119;52.516;13.508;2023-06-14T09:07:05;21.47;67.40
69823;SHT31;57119;52.516;13.508;2023-06-14T09:09:32;22.17;67.90
69823;SHT31;57119;52.516;13.508;2023-06-14T09:11:57;22.11;67.14
69823;SHT31;57119;52.516;13.508;2023-06-14T09:14:24;21.83;67.09
69823;SHT31;57119;52.516;13.508;2023-06-14T09:16:53;22.21;66.41
69823;SHT31;57119;52.516;13.508;2023-06-14T09:19:23;22.10;66.58
69823;SHT31;57119;52.516;13.508;2023-06-14T09:21:49;21.26;68.64
69823;SHT31;57119;52.516;13.508;2023-06-14T09:24:15;21.93;68.53
69823;SHT31;57119;52.516;13.508;2023-06-14T09:26:40;21.59;67.18
69823;SHT31;57119;52.516;13.508;2023-06-14T09:29:06;21.76;67.26
69823;SHT31;57119;52.516;13.508;2023-06-14T09:31:31;21.60;67.26
69823;SHT31;57119;52.516;13.508;2023-06-14T09:33:58;21.98;66.85
69823;SHT31;57119;52.516;13.508;2023-06-14T09:36:25;21.97;66.50
69823;SHT31;57119;52.516;13.508;2023-06-14T09:38:58;22.27;66.25
69823;SHT31;57119;52.516;13.508;2023-06-14T09:41:31;22.46;65.88
69823;SHT31;57119;52.516;13.508;2023-06-14T09:43:58;22.92;65.48
69823;SHT31;57119;52.516;13.508;2023-06-14T09:46:26;23.00;64.53
69823;SHT31;57119;52.516;13.508;2023-06-14T09:48:52;22.96;64.89
69823;SHT31;57119;52.516;13.508;2023-06-14T09:51:18;22.45;65.14
69823;SHT31;57119;52.516;13.508;2023-06-14T09:53:46;22.60;65.13
69823;SHT31;57119;52.516;13.508;2023-06-14T09:56:16;22.49;65.61
69823;SHT31;57119;52.516;13.508;2023-06-14T09:58:46;22.31;66.00
69823;SHT31;57119;52.516;13.508;2023-06-14T10:01:12;22.60;66.56
69823;SHT31;57119;52.516;13.508;2023-06-14T10:03:39;22.27;65.70
69823;SHT31;57119;52.516;13.508;2023-06-14T10:06:07;22.02;65.75
69823;SHT31;57119;52.516;13.508;2023-06-14T10:08:35;22.17;66.39
69823;SHT31;57119;52.516;13.508;2023-06-14T10:11:02;22.25;65.43
69823;SHT31;57119;52.516;13.508;2023-06-14T10:13:31;22.41;65.83
69823;SHT31;57119;52.516;13.508;2023-06-14T10:16:10;21.87;66.30
69823;SHT31;57119;52.516;13.508;2023-06-14T10:18:51;22.15;66.91
69823;SHT31;57119;52.516;13.508;2023-06-14T10:24:05;21.97;66.32
69823;SHT31;57119;52.516;13.508;2023-06-14T10:26:31;21.94;67.39
69823;SHT31;57119;52.516;13.508;2023-06-14T10:29:07;21.76;66.63
69823;SHT31;57119;52.516;13.508;2023-06-14T10:31:48;21.47;68.02
69823;SHT31;57119;52.516;13.508;2023-06-14T10:34:23;21.39;67.32
69823;SHT31;57119;52.516;13.508;2023-06-14T10:37:05;21.50;67.71
69823;SHT31;57119;52.516;13.508;2023-06-14T10:39:33;21.53;67.73
69823;SHT31;57119;52.516;13.508;2023-06-14T10:42:01;21.50;66.71
69823;SHT31;57119;52.516;13.508;2023-06-14T10:46:55;21.77;66.08
69823;SHT31;57119;52.516;13.508;2023-06-14T10:52:12;22.44;65.25
69823;SHT31;57119;52.516;13.508;2023-06-14T10:57:45;23.35;63.65
69823;SHT31;57119;52.516;13.508;2023-06-14T11:00:12;23.62;63.05
69823;SHT31;57119;52.516;13.508;2023-06-14T11:05:51;23.71;63.58
69823;SHT31;57119;52.516;13.508;2023-06-14T11:08:40;23.50;63.47
69823;SHT31;57119;52.516;13.508;2023-06-14T11:11:12;23.73;62.08
69823;SHT31;57119;52.516;13.508;2023-06-14T11:13:42;23.68;61.77
69823;SHT31;57119;52.516;13.508;2023-06-14T11:16:13;23.78;61.45
69823;SHT31;57119;52.516;13.508;2023-06-14T11:18:38;24.40;61.27
69823;SHT31;57119;52.516;13.508;2023-06-14T11:21:04;24.74;61.92
69823;SHT31;57119;52.516;13.508;2023-06-14T11:23:29;24.68;60.95
69823;SHT31;57119;52.516;13.508;2023-06-14T11:25:55;24.87;60.34
69823;SHT31;57119;52.516;13.508;2023-06-14T11:28:20;25.01;59.11
69823;SHT31;57119;52.516;13.508;2023-06-14T11:30:59;25.25;57.69
69823;SHT31;57119;52.516;13.508;2023-06-14T11:33:24;25.60;58.27
69823;SHT31;57119;52.516;13.508;2023-06-14T11:35:51;25.84;57.74
69823;SHT31;57119;52.516;13.508;2023-06-14T11:38:16;25.47;58.66
69823;SHT31;57119;52.516;13.508;2023-06-14T11:40:41;24.60;58.45
69823;SHT31;57119;52.516;13.508;2023-06-14T11:43:07;24.34;59.94
69823;SHT31;57119;52.516;13.508;2023-06-14T11:45:33;24.27;59.29
69823;SHT31;57119;52.516;13.508;2023-06-14T11:47:58;26.09;57.92
69823;SHT31;57119;52.516;13.508;2023-06-14T11:50:25;26.68;54.81
69823;SHT31;57119;52.516;13.508;2023-06-14T11:52:55;26.79;53.40
69823;SHT31;57119;52.516;13.508;2023-06-14T11:55:21;28.36;53.04
69823;SHT31;57119;52.516;13.508;2023-06-14T11:57:47;29.70;51.84
69823;SHT31;57119;52.516;13.508;2023-06-14T12:00:13;29.12;49.76
69823;SHT31;57119;52.516;13.508;2023-06-14T12:02:41;31.17;47.32
69823;SHT31;57119;52.516;13.508;2023-06-14T12:05:07;32.26;47.47
69823;SHT31;57119;52.516;13.508;2023-06-14T12:07:38;31.87;47.13
69823;SHT31;57119;52.516;13.508;2023-06-14T12:10:06;31.83;46.18
69823;SHT31;57119;52.516;13.508;2023-06-14T12:12:37;31.80;45.40
69823;SHT31;57119;52.516;13.508;2023-06-14T12:15:05;31.62;45.74
69823;SHT31;57119;52.516;13.508;2023-06-14T12:17:35;31.48;46.08
69823;SHT31;57119;52.516;13.508;2023-06-14T12:20:12;32.58;44.87
69823;SHT31;57119;52.516;13.508;2023-06-14T12:22:54;34.26;44.12
69823;SHT31;57119;52.516;13.508;2023-06-14T12:25:29;34.09;42.37
69823;SHT31;57119;52.516;13.508;2023-06-14T12:28:05;33.76;42.12
69823;SHT31;57119;52.516;13.508;2023-06-14T12:30:31;32.67;43.23
69823;SHT31;57119;52.516;13.508;2023-06-14T12:32:57;34.04;43.11
69823;SHT31;57119;52.516;13.508;2023-06-14T12:35:22;31.53;43.77
69823;SHT31;57119;52.516;13.508;2023-06-14T12:37:47;30.39;44.99
69823;SHT31;57119;52.516;13.508;2023-06-14T12:40:13;30.04;45.50
69823;SHT31;57119;52.516;13.508;2023-06-14T12:42:40;33.68;43.48
69823;SHT31;57119;52.516;13.508;2023-06-14T12:45:06;32.60;41.40
69823;SHT31;57119;52.516;13.508;2023-06-14T12:47:31;33.96;43.31
69823;SHT31;57119;52.516;13.508;2023-06-14T12:49:57;34.90;40.87
69823;SHT31;57119;52.516;13.508;2023-06-14T12:52:22;34.73;39.77
69823;SHT31;57119;52.516;13.508;2023-06-14T12:54:48;34.49;41.87
69823;SHT31;57119;52.516;13.508;2023-06-14T12:57:13;34.93;40.33
69823;SHT31;57119;52.516;13.508;2023-06-14T12:59:38;33.23;40.55
69823;SHT31;57119;52.516;13.508;2023-06-14T13:02:14;31.20;43.90
69823;SHT31;57119;52.516;13.508;2023-06-14T13:04:40;30.46;44.34
69823;SHT31;57119;52.516;13.508;2023-06-14T13:07:05;31.76;42.46
69823;SHT31;57119;52.516;13.508;2023-06-14T13:09:31;32.84;42.13
69823;SHT31;57119;52.516;13.508;2023-06-14T13:11:56;31.12;41.61
69823;SHT31;57119;52.516;13.508;2023-06-14T13:14:22;31.72;41.09
69823;SHT31;57119;52.516;13.508;2023-06-14T13:16:47;30.47;42.91
69823;SHT31;57119;52.516;13.508;2023-06-14T13:19:13;30.74;43.85
69823;SHT31;57119;52.516;13.508;2023-06-14T13:21:38;32.44;40.82
69823;SHT31;57119;52.516;13.508;2023-06-14T13:24:04;31.70;42.97
69823;SHT31;57119;52.516;13.508;2023-06-14T13:26:29;32.05;41.35
69823;SHT31;57119;52.516;13.508;2023-06-14T13:28:55;30.84;43.06
69823;SHT31;57119;52.516;13.508;2023-06-14T13:31:20;31.61;42.26
69823;SHT31;57119;52.516;13.508;2023-06-14T13:33:45;32.74;41.21
69823;SHT31;57119;52.516;13.508;2023-06-14T13:36:11;30.39;42.48
69823;SHT31;57119;52.516;13.508;2023-06-14T13:38:36;29.89;45.62
69823;SHT31;57119;52.516;13.508;2023-06-14T13:41:02;29.80;44.90
69823;SHT31;57119;52.516;13.508;2023-06-14T13:43:27;29.15;44.15
69823;SHT31;57119;52.516;13.508;2023-06-14T13:45:52;29.60;45.64
69823;SHT31;57119;52.516;13.508;2023-06-14T13:48:17;29.51;45.29
69823;SHT31;57119;52.516;13.508;2023-06-14T13:50:43;31.01;44.75
69823;SHT31;57119;52.516;13.508;2023-06-14T13:53:09;31.31;44.12
69823;SHT31;57119;52.516;13.508;2023-06-14T13:55:34;31.04;44.63
69823;SHT31;57119;52.516;13.508;2023-06-14T13:58:00;30.69;44.61
69823;SHT31;57119;52.516;13.508;2023-06-14T14:00:25;29.60;45.64
69823;SHT31;57119;52.516;13.508;2023-06-14T14:02:51;28.65;46.24
69823;SHT31;57119;52.516;13.508;2023-06-14T14:05:16;27.65;47.52
69823;SHT31;57119;52.516;13.508;2023-06-14T14:07:42;27.70;48.07
69823;SHT31;57119;52.516;13.508;2023-06-14T14:10:08;27.69;47.65
69823;SHT31;57119;52.516;13.508;2023-06-14T14:12:33;27.27;48.47
69823;SHT31;57119;52.516;13.508;2023-06-14T14:14:59;28.02;46.35
69823;SHT31;57119;52.516;13.508;2023-06-14T14:17:24;28.95;46.46
69823;SHT31;57119;52.516;13.508;2023-06-14T14:19:50;29.05;46.51
69823;SHT31;57119;52.516;13.508;2023-06-14T14:22:15;29.42;46.44
69823;SHT31;57119;52.516;13.508;2023-06-14T14:24:41;28.39;45.78
69823;SHT31;57119;52.516;13.508;2023-06-14T14:27:06;28.74;45.02
69823;SHT31;57119;52.516;13.508;2023-06-14T14:29:33;28.44;45.46
69823;SHT31;57119;52.516;13.508;2023-06-14T14:31:58;28.91;45.49
69823;SHT31;57119;52.516;13.508;2023-06-14T14:34:24;28.74;45.20
69823;SHT31;57119;52.516;13.508;2023-06-14T14:36:49;27.72;46.12
69823;SHT31;57119;52.516;13.508;2023-06-14T14:39:15;27.52;46.03
69823;SHT31;57119;52.516;13.508;2023-06-14T14:41:40;26.43;46.97
69823;SHT31;57119;52.516;13.508;2023-06-14T14:44:06;27.20;47.11
69823;SHT31;57119;52.516;13.508;2023-06-14T14:46:32;27.10;47.02
69823;SHT31;57119;52.516;13.508;2023-06-14T14:48:58;25.71;48.18
69823;SHT31;57119;52.516;13.508;2023-06-14T14:51:24;26.68;47.90
69823;SHT31;57119;52.516;13.508;2023-06-14T14:53:49;26.39;47.81
69823;SHT31;57119;52.516;13.508;2023-06-14T14:56:15;26.50;48.34
69823;SHT31;57119;52.516;13.508;2023-06-14T14:58:40;25.98;49.07
69823;SHT31;57119;52.516;13.508;2023-06-14T15:01:06;25.81;48.83
69823;SHT31;57119;52.516;13.508;2023-06-14T15:03:32;25.47;50.18
69823;SHT31;57119;52.516;13.508;2023-06-14T15:05:57;25.14;51.74
69823;SHT31;57119;52.516;13.508;2023-06-14T15:08:23;24.68;52.40
69823;SHT31;57119;52.516;13.508;2023-06-14T15:10:48;24.36;52.82
69823;SHT31;57119;52.516;13.508;2023-06-14T15:13:14;23.96;53.60
69823;SHT31;57119;52.516;13.508;2023-06-14T15:15:39;23.82;54.06
69823;SHT31;57119;52.516;13.508;2023-06-14T15:18:05;23.59;53.86
69823;SHT31;57119;52.516;13.508;2023-06-14T15:20:30;23.83;54.86
69823;SHT31;57119;52.516;13.508;2023-06-14T15:22:55;23.76;54.84
69823;SHT31;57119;52.516;13.508;2023-06-14T15:25:28;23.79;54.22
69823;SHT31;57119;52.516;13.508;2023-06-14T15:27:53;23.73;53.75